Time;durP1;ratioP1;P1;durP2;ratioP2;P2;SDS_P1;SDS_P2;PMS_P1;PMS_P2;Temp;Humidity;BMP_temperature;BMP_pressure;BME280_temperature;BME280_humidity;BME280_pressure;Samples;Min_cycle;Max_cycle;Signal;HPM_P1;HPM_P2
2023/06/21 00:00:32;;;;;;;27.08;19.80;;;;;;;18.32;100.00;101128.53;10419381;28;20469;-72
2023/06/21 00:05:33;;;;;;;25.33;20.25;;;;;;;18.27;100.00;101122.94;10397539;28;20042;-71
2023/06/21 00:10:33;;;;;;;29.63;19.55;;;;;;;18.22;100.00;101118.22;10413894;28;20043;-70
2023/06/21 00:15:36;;;;;;;26.85;19.75;;;;;;;18.19;100.00;101117.84;10411134;28;20518;-70
2023/06/21 00:20:37;;;;;;;21.00;18.40;;;;;;;18.11;100.00;101122.63;10413320;28;20392;-70
2023/06/21 00:25:37;;;;;;;23.30;16.50;;;;;;;18.07;100.00;101123.38;10411553;28;20065;-70
2023/06/21 00:30:38;;;;;;;22.33;18.98;;;;;;;18.05;100.00;101134.56;10413269;28;20029;-70
2023/06/21 00:35:38;;;;;;;32.60;19.58;;;;;;;18.02;100.00;101142.41;10416567;28;20052;-70
2023/06/21 00:40:39;;;;;;;26.92;19.42;;;;;;;18.01;100.00;101146.25;10422360;28;20052;-71
2023/06/21 00:45:45;;;;;;;28.55;18.48;;;;;;;17.99;100.00;101167.56;10423535;28;20081;-70
2023/06/21 00:50:45;;;;;;;21.53;18.00;;;;;;;17.97;100.00;101181.53;10423415;28;20082;-70
2023/06/21 00:55:46;;;;;;;22.08;17.83;;;;;;;17.97;100.00;101191.66;10419975;28;20483;-71
2023/06/21 01:00:50;;;;;;;19.25;17.27;;;;;;;17.94;100.00;101203.91;10417825;28;20029;-71
2023/06/21 01:06:28;;;;;;;21.75;16.73;;;;;;;17.89;100.00;101201.06;10402781;28;20033;-71
2023/06/21 01:11:31;;;;;;;20.83;14.80;;;;;;;17.85;100.00;101206.19;10418622;28;20128;-70
2023/06/21 01:16:36;;;;;;;17.50;15.25;;;;;;;17.80;100.00;101205.22;10401397;28;20045;-70
2023/06/21 01:21:37;;;;;;;20.05;17.02;;;;;;;17.80;100.00;101216.19;10419056;28;20049;-70
2023/06/21 01:26:58;;;;;;;20.38;17.90;;;;;;;17.79;100.00;101215.34;10417317;28;20088;-71
2023/06/21 01:32:01;;;;;;;21.75;18.50;;;;;;;17.79;100.00;101207.13;10401751;28;20112;-70
2023/06/21 01:37:01;;;;;;;23.42;18.98;;;;;;;17.81;100.00;101212.38;10418391;28;20064;-71
2023/06/21 01:42:04;;;;;;;28.02;17.13;;;;;;;17.78;100.00;101207.38;10416990;28;20065;-71
2023/06/21 01:47:05;;;;;;;22.60;17.83;;;;;;;17.76;100.00;101206.75;10414922;28;20095;-71
2023/06/21 01:52:06;;;;;;;24.33;19.80;;;;;;;17.75;100.00;101207.81;10413345;28;20527;-71
2023/06/21 01:57:07;;;;;;;28.67;18.42;;;;;;;17.76;100.00;101221.28;10415058;28;20116;-71
2023/06/21 02:02:08;;;;;;;22.20;17.70;;;;;;;17.71;100.00;101223.91;10381051;28;20037;-70
2023/06/21 02:07:08;;;;;;;22.30;18.35;;;;;;;17.63;100.00;101224.25;10413688;28;20397;-71
2023/06/21 02:12:09;;;;;;;22.83;17.65;;;;;;;17.60;100.00;101241.13;10415001;28;20040;-71
2023/06/21 02:17:10;;;;;;;17.92;13.43;;;;;;;17.58;100.00;101244.13;10413607;28;20033;-70
2023/06/21 02:22:11;;;;;;;15.85;14.20;;;;;;;17.53;100.00;101232.22;10412942;28;20457;-70
2023/06/21 02:27:12;;;;;;;18.02;12.57;;;;;;;17.45;100.00;101233.38;10412633;28;20042;-70
2023/06/21 02:32:12;;;;;;;14.52;11.30;;;;;;;17.41;100.00;101240.38;10413860;28;20433;-70
2023/06/21 02:37:13;;;;;;;15.68;11.02;;;;;;;17.42;100.00;101253.84;10413784;28;20332;-70
2023/06/21 02:42:14;;;;;;;24.87;10.13;;;;;;;17.43;100.00;101255.53;10361597;28;1481140;-71
2023/06/21 02:47:14;;;;;;;19.30;10.95;;;;;;;17.40;100.00;101264.19;10415521;28;20038;-71
2023/06/21 02:52:15;;;;;;;15.60;10.05;;;;;;;17.39;100.00;101258.97;10415074;28;20135;-71
2023/06/21 02:57:15;;;;;;;15.15;9.43;;;;;;;17.40;100.00;101266.94;10412779;28;20046;-70
2023/06/21 03:02:18;;;;;;;8.27;6.95;;;;;;;17.41;100.00;101268.59;10415701;28;20037;-71
2023/06/21 03:07:19;;;;;;;6.90;6.30;;;;;;;17.42;100.00;101283.97;10421201;28;20026;-71
2023/06/21 03:12:19;;;;;;;9.32;6.00;;;;;;;17.43;100.00;101291.09;10419086;28;20037;-70
2023/06/21 03:17:19;;;;;;;9.50;5.13;;;;;;;17.42;100.00;101302.28;10415689;28;20065;-70
2023/06/21 03:22:20;;;;;;;6.60;4.40;;;;;;;17.37;100.00;101311.19;10413820;28;20057;-70
2023/06/21 03:27:20;;;;;;;9.73;3.83;;;;;;;17.36;100.00;101315.03;10412457;28;20117;-71
2023/06/21 03:32:21;;;;;;;9.05;3.25;;;;;;;17.35;100.00;101318.81;10413875;28;20041;-71
2023/06/21 03:37:21;;;;;;;2.92;2.72;;;;;;;17.32;100.00;101318.44;10414942;28;20067;-71
2023/06/21 03:42:22;;;;;;;4.35;3.05;;;;;;;17.33;100.00;101325.59;10413632;28;20077;-71
2023/06/21 03:47:22;;;;;;;11.68;3.35;;;;;;;17.36;100.00;101328.72;10412208;28;20063;-71
2023/06/21 03:52:23;;;;;;;10.70;3.65;;;;;;;17.38;100.00;101332.03;10412516;28;20041;-71
2023/06/21 03:57:24;;;;;;;3.15;2.95;;;;;;;17.41;100.00;101348.00;10412749;28;20045;-72
2023/06/21 04:02:24;;;;;;;3.60;3.08;;;;;;;17.47;100.00;101357.19;10412662;28;20037;-71
2023/06/21 04:07:24;;;;;;;2.97;2.78;;;;;;;17.51;100.00;101352.06;10413083;28;20034;-71
2023/06/21 04:12:26;;;;;;;3.33;3.10;;;;;;;17.57;100.00;101353.88;10412278;28;20059;-71
2023/06/21 04:17:30;;;;;;;3.08;2.75;;;;;;;17.62;100.00;101375.94;10413412;28;20061;-71
2023/06/21 04:22:30;;;;;;;6.07;2.95;;;;;;;17.63;100.00;101370.22;10411669;28;20037;-70
2023/06/21 04:27:31;;;;;;;7.18;3.67;;;;;;;17.67;100.00;101376.88;10411787;28;20113;-71
2023/06/21 04:32:31;;;;;;;10.57;3.53;;;;;;;17.68;100.00;101372.28;10413511;28;20072;-71
2023/06/21 04:37:32;;;;;;;4.15;3.50;;;;;;;17.70;100.00;101391.19;10412725;28;20029;-69
2023/06/21 04:42:33;;;;;;;3.30;3.00;;;;;;;17.76;100.00;101379.31;10411383;28;20053;-68
2023/06/21 04:47:37;;;;;;;10.52;3.25;;;;;;;17.79;100.00;101379.72;10413122;28;20060;-68
2023/06/21 04:52:37;;;;;;;6.57;3.22;;;;;;;17.92;100.00;101384.16;10411148;28;20504;-68
2023/06/21 04:57:38;;;;;;;4.97;2.70;;;;;;;17.99;100.00;101389.53;10411641;28;20105;-68
2023/06/21 05:02:39;;;;;;;2.53;2.38;;;;;;;17.95;100.00;101394.66;10411685;28;20430;-69
2023/06/21 05:07:39;;;;;;;3.72;2.92;;;;;;;18.46;100.00;101398.66;10344664;28;20076;-70
2023/06/21 05:12:39;;;;;;;4.82;3.75;;;;;;;19.60;100.00;101400.88;10380683;28;20073;-70
2023/06/21 05:17:40;;;;;;;5.88;2.33;;;;;;;20.27;100.00;101400.16;10370614;28;20037;-71
2023/06/21 05:22:42;;;;;;;5.80;2.60;;;;;;;20.39;100.00;101402.84;10374281;28;20449;-71
2023/06/21 05:27:42;;;;;;;8.30;2.92;;;;;;;20.71;100.00;101418.72;10377369;28;20088;-69
2023/06/21 05:32:43;;;;;;;3.08;2.72;;;;;;;21.01;100.00;101424.69;10377674;28;20122;-72
2023/06/21 05:37:43;;;;;;;6.38;2.38;;;;;;;21.78;100.00;101431.97;10376132;28;20474;-72
2023/06/21 05:42:44;;;;;;;2.85;2.22;;;;;;;22.17;100.00;101433.75;10360302;28;20149;-71
2023/06/21 05:47:44;;;;;;;2.63;2.42;;;;;;;22.60;100.00;101430.00;10377332;28;20425;-71
2023/06/21 05:52:44;;;;;;;5.25;3.08;;;;;;;23.00;100.00;101425.00;10375513;28;20040;-71
2023/06/21 05:57:45;;;;;;;2.67;2.47;;;;;;;23.39;100.00;101442.91;10377582;28;20041;-71
2023/06/21 06:02:45;;;;;;;3.88;2.70;;;;;;;23.61;100.00;101436.31;10392730;28;20118;-71
2023/06/21 06:07:46;;;;;;;2.03;1.92;;;;;;;23.79;100.00;101451.63;10374989;28;20030;-71
2023/06/21 06:12:47;;;;;;;7.53;2.58;;;;;;;24.04;100.00;101457.19;10377533;28;20040;-71
2023/06/21 06:17:47;;;;;;;9.98;2.60;;;;;;;24.02;100.00;101464.94;10378923;28;20478;-72
2023/06/21 06:22:48;;;;;;;4.85;1.77;;;;;;;24.34;100.00;101477.69;10380860;28;20060;-72
2023/06/21 06:27:48;;;;;;;8.45;2.33;;;;;;;24.76;100.00;101480.22;10374558;28;20030;-71
2023/06/21 06:32:49;;;;;;;6.32;1.98;;;;;;;25.10;100.00;101476.00;10373884;28;20038;-71
2023/06/21 06:37:49;;;;;;;2.97;1.88;;;;;;;25.21;100.00;101483.22;10390101;28;20042;-71
2023/06/21 06:42:50;;;;;;;1.80;1.52;;;;;;;25.79;100.00;101493.81;10372656;28;20076;-72
2023/06/21 06:47:51;;;;;;;6.72;1.52;;;;;;;25.90;100.00;101499.03;10374916;28;20034;-69
2023/06/21 06:52:52;;;;;;;5.15;2.13;;;;;;;25.73;100.00;101510.47;10372670;28;20132;-70
2023/06/21 06:57:52;;;;;;;2.55;2.08;;;;;;;26.21;100.00;101507.16;10374085;28;20037;-70
2023/06/21 07:02:57;;;;;;;3.03;2.00;;;;;;;26.49;100.00;101516.72;10374160;28;20390;-71
2023/06/21 07:07:57;;;;;;;1.60;1.50;;;;;;;26.55;100.00;101518.34;10373554;28;20414;-70
2023/06/21 07:13:02;;;;;;;4.82;2.45;;;;;;;26.62;100.00;101529.13;10388550;28;20119;-71
2023/06/21 07:18:02;;;;;;;1.98;1.88;;;;;;;26.99;100.00;101531.25;10373698;28;20072;-73
2023/06/21 07:23:03;;;;;;;4.47;2.42;;;;;;;27.32;100.00;101535.13;10374478;28;20096;-71
2023/06/21 07:28:03;;;;;;;2.35;2.22;;;;;;;27.95;100.00;101527.69;10372664;28;20034;-71
2023/06/21 07:33:08;;;;;;;3.40;1.90;;;;;;;28.22;100.00;101541.78;10371256;28;20034;-70
2023/06/21 07:38:08;;;;;;;2.78;1.75;;;;;;;28.51;100.00;101547.22;10372471;28;20057;-71
2023/06/21 07:43:09;;;;;;;7.32;1.75;;;;;;;28.72;100.00;101549.69;10371615;28;20436;-69
2023/06/21 07:48:10;;;;;;;6.45;2.28;;;;;;;28.75;100.00;101551.88;10371271;28;20038;-70
2023/06/21 07:53:10;;;;;;;3.13;2.92;;;;;;;28.92;100.00;101559.66;10373056;28;20033;-69
2023/06/21 07:58:11;;;;;;;9.75;3.25;;;;;;;28.90;100.00;101554.38;10371562;28;20433;-69
2023/06/21 08:03:11;;;;;;;5.00;3.13;;;;;;;29.17;100.00;101559.22;10372137;28;20040;-71
2023/06/21 08:08:12;;;;;;;8.80;3.95;;;;;;;29.30;100.00;101563.19;10370361;28;20402;-70
2023/06/21 08:13:17;;;;;;;6.85;4.30;;;;;;;29.17;100.00;101575.16;10370065;28;20148;-70
2023/06/21 08:18:17;;;;;;;5.82;3.67;;;;;;;29.53;100.00;101580.03;10369940;28;20453;-70
2023/06/21 08:23:17;;;;;;;9.73;3.28;;;;;;;29.58;100.00;101572.41;10371168;28;20041;-70
2023/06/21 08:28:18;;;;;;;4.28;3.88;;;;;;;29.85;100.00;101579.97;10353102;28;20149;-70
2023/06/21 08:33:18;;;;;;;5.78;4.00;;;;;;;30.17;100.00;101572.56;10371012;28;20115;-70
2023/06/21 08:38:19;;;;;;;4.30;3.90;;;;;;;30.19;100.00;101584.28;10369551;28;20053;-70
2023/06/21 08:43:19;;;;;;;3.90;3.50;;;;;;;30.35;100.00;101584.78;10371392;28;20370;-71
2023/06/21 08:48:20;;;;;;;3.95;3.63;;;;;;;30.84;100.00;101597.03;10353066;28;20030;-71
2023/06/21 08:53:25;;;;;;;4.03;3.65;;;;;;;30.88;100.00;101598.03;10370061;28;20120;-71
2023/06/21 08:58:25;;;;;;;6.38;4.38;;;;;;;30.99;100.00;101593.84;10376710;28;20426;-72
2023/06/21 09:03:36;;;;;;;3.30;3.03;;;;;;;30.83;100.00;101614.13;10377139;28;20037;-69
2023/06/21 09:08:37;;;;;;;4.30;3.55;;;;;;;30.99;100.00;101619.03;10377026;28;20030;-72
2023/06/21 09:13:38;;;;;;;4.57;4.18;;;;;;;30.78;100.00;101621.47;10378198;28;20045;-72
2023/06/21 09:18:39;;;;;;;4.95;3.30;;;;;;;31.02;100.00;101614.75;10378801;28;20041;-71
2023/06/21 09:23:40;;;;;;;4.50;3.97;;;;;;;31.13;100.00;101607.75;10378447;28;20104;-71
2023/06/21 09:28:40;;;;;;;4.60;3.85;;;;;;;31.39;100.00;101613.50;10377255;28;20076;-70
2023/06/21 09:33:42;;;;;;;8.25;4.22;;;;;;;31.58;100.00;101615.25;10377261;28;20029;-71
2023/06/21 09:38:42;;;;;;;5.05;4.65;;;;;;;31.30;100.00;101617.38;10375800;28;20034;-70
2023/06/21 09:43:44;;;;;;;9.15;5.25;;;;;;;31.08;100.00;101619.09;10375771;28;20430;-69
2023/06/21 09:48:44;;;;;;;7.85;4.07;;;;;;;31.43;100.00;101625.75;10375445;28;20042;-70
2023/06/21 09:53:45;;;;;;;7.95;5.53;;;;;;;31.55;100.00;101632.69;10392921;28;20129;-70
2023/06/21 09:58:50;;;;;;;11.00;4.85;;;;;;;31.15;100.00;101635.41;10375145;28;20034;-70
2023/06/21 10:03:50;;;;;;;3.58;3.28;;;;;;;31.21;100.00;101642.53;10374602;28;20034;-70
2023/06/21 10:08:51;;;;;;;5.15;4.55;;;;;;;31.97;97.64;101653.63;10375719;28;20079;-70
2023/06/21 10:13:53;;;;;;;8.48;4.57;;;;;;;31.95;90.98;101647.56;10375513;28;20139;-70
2023/06/21 10:18:54;;;;;;;6.93;3.38;;;;;;;31.65;93.43;101661.25;10374425;28;20065;-71
2023/06/21 10:23:54;;;;;;;5.03;4.28;;;;;;;31.49;75.11;101665.59;10374004;28;20103;-69
2023/06/21 10:28:56;;;;;;;6.25;4.28;;;;;;;31.33;87.07;101670.78;10375436;28;20088;-71
2023/06/21 10:33:57;;;;;;;5.72;3.85;;;;;;;30.81;87.84;101660.00;10376748;28;20124;-70
2023/06/21 10:39:02;;;;;;;4.80;3.90;;;;;;;31.57;82.96;101667.63;10373865;28;20059;-69
2023/06/21 10:44:02;;;;;;;5.93;5.47;;;;;;;31.40;86.99;101661.94;10373317;28;20053;-71
2023/06/21 10:49:03;;;;;;;6.47;5.38;;;;;;;31.28;87.21;101671.72;10356810;28;20026;-69
2023/06/21 10:54:03;;;;;;;5.88;5.38;;;;;;;31.26;89.17;101682.38;10357769;28;20030;-69
2023/06/21 10:59:04;;;;;;;5.10;4.47;;;;;;;31.18;75.51;101693.53;10357148;28;20474;-70
2023/06/21 11:04:04;;;;;;;5.20;4.72;;;;;;;31.03;82.27;101694.72;10374251;28;20033;-69
2023/06/21 11:09:10;;;;;;;5.75;3.85;;;;;;;31.21;83.93;101707.72;10373271;28;20124;-71
2023/06/21 11:14:10;;;;;;;;;;;;;;;31.27;77.05;101716.78;10341987;28;20032;-72
2023/06/21 11:19:13;;;;;;;4.78;4.13;;;;;;;31.35;76.49;101726.44;10373474;28;20337;-72
2023/06/21 11:24:19;;;;;;;8.95;4.18;;;;;;;31.07;84.92;101725.69;10356216;28;20038;-71
2023/06/21 11:29:19;;;;;;;5.10;4.70;;;;;;;30.92;82.30;101736.13;10355316;28;20100;-70
2023/06/21 11:34:29;;;;;;;4.47;4.10;;;;;;;31.70;77.75;101742.31;10372961;28;20132;-70
2023/06/21 11:39:29;;;;;;;6.00;5.28;;;;;;;31.28;73.76;101746.44;10372152;28;20517;-69
2023/06/21 11:44:30;;;;;;;4.88;4.43;;;;;;;31.28;76.10;101747.28;10372133;28;20149;-69
2023/06/21 11:49:33;;;;;;;3.50;3.15;;;;;;;31.46;71.74;101750.22;10373530;28;20441;-70
2023/06/21 11:54:37;;;;;;;4.80;4.40;;;;;;;31.23;82.37;101750.19;10370829;28;20385;-72
2023/06/21 11:59:37;;;;;;;5.13;4.63;;;;;;;30.84;80.11;101758.41;10369990;28;20439;-71
2023/06/21 12:04:41;;;;;;;6.80;3.42;;;;;;;31.55;76.66;101750.28;10370551;28;20050;-71
2023/06/21 12:09:50;;;;;;;5.00;4.60;;;;;;;31.08;84.61;101764.56;10370371;28;20125;-70
2023/06/21 12:14:50;;;;;;;6.13;5.53;;;;;;;30.11;84.87;101767.38;10371340;28;20044;-71
2023/06/21 12:19:50;;;;;;;4.15;3.88;;;;;;;30.43;76.93;101771.25;10372914;28;20041;-72
2023/06/21 12:24:52;;;;;;;6.70;6.00;;;;;;;30.92;80.25;101763.22;10370630;28;20045;-69
2023/06/21 12:29:52;;;;;;;4.53;4.10;;;;;;;31.00;73.89;101770.88;10372095;28;20037;-72
2023/06/21 12:35:01;;;;;;;4.35;4.05;;;;;;;30.84;68.36;101769.59;10378220;28;20133;-72
2023/06/21 12:40:01;;;;;;;4.38;3.95;;;;;;;30.53;71.79;101770.22;10363098;28;20033;-72
2023/06/21 12:45:02;;;;;;;7.28;4.18;;;;;;;30.65;75.38;101781.69;10360944;28;20042;-71
2023/06/21 12:50:02;;;;;;;7.35;5.10;;;;;;;29.97;74.79;101788.88;10379692;28;20113;-68
2023/06/21 12:55:04;;;;;;;3.95;3.65;;;;;;;30.32;78.76;101806.16;10361515;28;20096;-70
2023/06/21 13:00:05;;;;;;;5.10;4.00;;;;;;;30.07;71.73;101813.00;10379037;28;20121;-72
2023/06/21 13:05:06;;;;;;;4.85;3.22;;;;;;;29.88;72.26;101824.25;10378515;28;20180;-70
2023/06/21 13:10:06;;;;;;;5.82;3.42;;;;;;;30.10;75.57;101824.41;10360690;28;20129;-70
2023/06/21 13:15:07;;;;;;;9.27;5.40;;;;;;;30.28;71.46;101819.91;10377431;28;20045;-70
2023/06/21 13:20:10;;;;;;;3.78;3.45;;;;;;;29.76;65.70;101823.88;10380042;28;20037;-72
2023/06/21 13:25:10;;;;;;;3.95;3.65;;;;;;;30.00;74.91;101824.59;10377172;28;20086;-71
2023/06/21 13:30:11;;;;;;;3.05;2.85;;;;;;;30.22;71.65;101826.72;10377915;28;20117;-73
2023/06/21 13:35:12;;;;;;;3.67;3.38;;;;;;;29.75;68.88;101820.28;10376769;28;20099;-70
2023/06/21 13:40:12;;;;;;;3.55;3.25;;;;;;;29.74;68.66;101826.16;10376772;28;20030;-70
2023/06/21 13:45:13;;;;;;;7.82;4.80;;;;;;;29.97;66.59;101821.59;10358481;28;20050;-70
2023/06/21 13:50:13;;;;;;;4.80;4.15;;;;;;;29.69;66.30;101813.13;10376830;28;20088;-70
2023/06/21 13:55:14;;;;;;;3.90;3.42;;;;;;;29.62;63.12;101819.09;10377008;28;20069;-71
2023/06/21 14:00:15;;;;;;;4.75;2.35;;;;;;;29.63;56.04;101804.00;10374932;28;20034;-71
2023/06/21 14:05:17;;;;;;;4.13;2.58;;;;;;;29.26;64.55;101804.00;10374814;28;20037;-71
2023/06/21 14:10:17;;;;;;;2.55;2.38;;;;;;;29.64;64.69;101816.84;10375986;28;20085;-72
2023/06/21 14:15:17;;;;;;;5.07;3.55;;;;;;;29.51;64.36;101811.97;10375622;28;20066;-70
2023/06/21 14:20:18;;;;;;;2.35;2.25;;;;;;;29.28;59.93;101816.50;10376233;28;20474;-70
2023/06/21 14:25:18;;;;;;;5.07;3.08;;;;;;;29.01;61.46;101819.16;10374902;28;20038;-72
2023/06/21 14:30:20;;;;;;;4.88;2.85;;;;;;;28.67;58.25;101803.41;10375046;28;20398;-72
2023/06/21 14:35:20;;;;;;;1.70;1.70;;;;;;;28.84;57.73;101812.06;10374209;28;20070;-71
2023/06/21 14:40:21;;;;;;;1.92;1.83;;;;;;;28.65;59.81;101819.56;10375252;28;20030;-72
2023/06/21 14:45:21;;;;;;;2.38;2.28;;;;;;;28.69;62.29;101812.28;10389836;28;20133;-72
2023/06/21 14:50:21;;;;;;;2.85;2.42;;;;;;;28.34;56.96;101822.69;10373763;28;20069;-72
2023/06/21 14:55:22;;;;;;;4.20;3.55;;;;;;;28.23;61.17;101815.56;10372327;28;20498;-70
2023/06/21 15:00:22;;;;;;;2.38;2.17;;;;;;;28.13;57.94;101812.88;10374601;28;20041;-70
2023/06/21 15:05:23;;;;;;;4.88;3.10;;;;;;;28.32;60.00;101822.16;10372293;28;20041;-69
2023/06/21 15:10:23;;;;;;;4.43;2.95;;;;;;;28.22;61.83;101819.47;10389830;28;20034;-72
2023/06/21 15:15:24;;;;;;;2.58;2.35;;;;;;;28.30;59.59;101824.41;10374299;28;20069;-70
2023/06/21 15:20:24;;;;;;;4.05;3.30;;;;;;;28.04;56.93;101823.81;10374971;28;20058;-70
2023/06/21 15:25:24;;;;;;;3.03;2.78;;;;;;;27.96;57.79;101830.88;10372916;28;20064;-71
2023/06/21 15:30:25;;;;;;;3.05;2.78;;;;;;;27.78;58.18;101828.81;10372783;28;20064;-72
2023/06/21 15:35:25;;;;;;;2.63;2.42;;;;;;;27.83;60.59;101825.16;10373783;28;20429;-71
2023/06/21 15:40:26;;;;;;;3.05;2.85;;;;;;;27.92;61.01;101815.88;10373651;28;20045;-70
2023/06/21 15:45:26;;;;;;;5.65;2.88;;;;;;;27.84;63.68;101826.81;10371397;28;20504;-70
2023/06/21 15:50:27;;;;;;;1.75;1.65;;;;;;;27.64;58.55;101825.81;10372588;28;20041;-72
2023/06/21 15:55:27;;;;;;;2.03;1.83;;;;;;;27.26;61.43;101831.09;10371487;28;20101;-71
2023/06/21 16:00:28;;;;;;;2.08;1.83;;;;;;;27.38;57.44;101818.78;10372796;28;20116;-69
2023/06/21 16:05:28;;;;;;;6.22;2.72;;;;;;;27.11;57.70;101822.81;10371445;28;20042;-70
2023/06/21 16:10:29;;;;;;;1.60;1.55;;;;;;;26.83;56.69;101824.34;10371617;28;20034;-68
2023/06/21 16:15:29;;;;;;;5.20;1.88;;;;;;;26.70;57.69;101827.72;10371684;28;20041;-71
2023/06/21 16:20:30;;;;;;;2.90;2.70;;;;;;;26.49;56.84;101838.09;10388028;28;20034;-70
2023/06/21 16:25:30;;;;;;;2.92;2.10;;;;;;;26.15;53.80;101847.00;10371907;28;20496;-69
2023/06/21 16:30:31;;;;;;;2.83;2.40;;;;;;;25.40;54.93;101843.88;10371756;28;20069;-71
2023/06/21 16:35:31;;;;;;;2.47;1.65;;;;;;;24.92;54.34;101843.16;10372560;28;20045;-70
2023/06/21 16:40:32;;;;;;;1.38;1.38;;;;;;;24.55;55.02;101842.16;10372230;28;20397;-68
2023/06/21 16:45:32;;;;;;;2.70;1.55;;;;;;;24.31;55.12;101849.16;10371856;28;20088;-70
2023/06/21 16:50:33;;;;;;;1.75;1.65;;;;;;;24.20;55.66;101841.91;10386099;28;20037;-71
2023/06/21 16:55:33;;;;;;;12.05;2.42;;;;;;;24.20;55.99;101850.22;10370000;28;20124;-70
2023/06/21 17:00:33;;;;;;;2.00;1.52;;;;;;;24.07;55.21;101844.03;10371682;28;20030;-71
2023/06/21 17:05:34;;;;;;;1.27;1.17;;;;;;;23.98;55.45;101855.84;10385908;28;20164;-71
2023/06/21 17:10:34;;;;;;;2.22;2.05;;;;;;;23.99;56.04;101857.50;10370035;28;20034;-71
2023/06/21 17:15:35;;;;;;;1.15;1.15;;;;;;;23.80;55.30;101848.78;10369514;28;20374;-72
2023/06/21 17:20:35;;;;;;;1.35;1.25;;;;;;;23.79;55.19;101841.59;10378381;28;20121;-70
2023/06/21 17:25:36;;;;;;;1.00;1.00;;;;;;;23.81;54.42;101837.47;10378266;28;20112;-70
2023/06/21 17:30:36;;;;;;;1.80;1.70;;;;;;;23.87;54.46;101849.41;10377644;28;20038;-71
2023/06/21 17:35:36;;;;;;;6.82;1.38;;;;;;;23.67;54.28;101856.41;10378291;28;20208;-70
2023/06/21 17:40:37;;;;;;;1.35;1.25;;;;;;;23.58;56.05;101852.44;10377189;28;20056;-71
2023/06/21 17:45:37;;;;;;;2.28;1.38;;;;;;;23.47;53.60;101841.53;10379360;28;20061;-70
2023/06/21 17:50:38;;;;;;;0.98;0.98;;;;;;;23.46;53.90;101832.41;10376383;28;20065;-71
2023/06/21 17:55:38;;;;;;;1.60;1.30;;;;;;;23.46;54.61;101837.94;10378180;28;20034;-72
2023/06/21 18:00:39;;;;;;;1.38;1.27;;;;;;;23.38;54.00;101824.56;10378276;28;20029;-70
2023/06/21 18:05:39;;;;;;;1.30;1.20;;;;;;;23.28;54.55;101825.31;10376525;28;20061;-70
2023/06/21 18:10:40;;;;;;;1.45;1.35;;;;;;;23.18;54.19;101823.28;10375421;28;20030;-70
2023/06/21 18:15:40;;;;;;;1.58;1.38;;;;;;;23.05;54.01;101820.91;10376518;28;20098;-70
2023/06/21 18:20:41;;;;;;;0.95;0.95;;;;;;;23.04;54.25;101818.41;10375521;28;20030;-70
2023/06/21 18:25:43;;;;;;;2.10;1.40;;;;;;;22.96;54.29;101811.41;10376379;28;20042;-71
2023/06/21 18:30:43;;;;;;;1.80;1.15;;;;;;;22.87;54.08;101812.94;10375216;28;20034;-70
2023/06/21 18:35:44;;;;;;;1.42;1.20;;;;;;;22.86;54.58;101814.03;10374929;28;20038;-70
2023/06/21 18:40:44;;;;;;;1.33;1.27;;;;;;;22.82;54.52;101810.13;10376346;28;20036;-71
2023/06/21 18:45:45;;;;;;;0.95;0.95;;;;;;;22.76;54.78;101798.16;10375326;28;20114;-69
2023/06/21 18:50:45;;;;;;;3.75;1.30;;;;;;;22.68;54.70;101801.38;10391414;28;20116;-69
2023/06/21 18:55:46;;;;;;;3.95;1.42;;;;;;;22.58;54.69;101792.97;10374098;28;20536;-66
2023/06/21 19:00:46;;;;;;;8.70;2.22;;;;;;;22.47;54.87;101786.47;10374674;28;20177;-63
2023/06/21 19:05:46;;;;;;;1.92;1.60;;;;;;;22.29;55.34;101780.16;10373758;28;20046;-65
2023/06/21 19:10:47;;;;;;;0.70;0.70;;;;;;;22.15;55.64;101778.84;10374022;28;20076;-63
2023/06/21 19:15:47;;;;;;;1.23;1.23;;;;;;;21.99;56.44;101775.00;10390231;28;20466;-63
2023/06/21 19:20:48;;;;;;;1.00;1.00;;;;;;;21.83;56.84;101776.69;10371805;28;20057;-63
2023/06/21 19:25:48;;;;;;;2.08;1.83;;;;;;;21.77;56.63;101783.22;10355375;28;20423;-63
2023/06/21 19:30:51;;;;;;;2.08;1.98;;;;;;;21.69;56.82;101769.84;10372564;28;20034;-62
2023/06/21 19:35:51;;;;;;;2.38;1.95;;;;;;;21.58;57.10;101774.34;10372733;28;20045;-63
2023/06/21 19:40:52;;;;;;;2.67;2.45;;;;;;;21.51;57.19;101783.88;10354147;28;20113;-67
2023/06/21 19:45:52;;;;;;;2.50;2.30;;;;;;;21.43;57.62;101787.03;10372516;28;20056;-66
2023/06/21 19:50:52;;;;;;;5.70;2.58;;;;;;;21.36;57.60;101788.03;10371841;28;20493;-64
2023/06/21 19:55:55;;;;;;;2.17;2.03;;;;;;;21.28;57.87;101793.06;10372154;28;20180;-64
2023/06/21 20:00:55;;;;;;;1.33;1.33;;;;;;;21.14;58.11;101798.03;10372042;28;20493;-64
2023/06/21 20:05:56;;;;;;;2.97;2.10;;;;;;;21.04;58.16;101815.22;10373066;28;20107;-65
2023/06/21 20:10:56;;;;;;;7.25;3.00;;;;;;;20.85;59.39;101814.56;10372032;28;20108;-63
2023/06/21 20:16:08;;;;;;;4.68;2.85;;;;;;;20.63;59.63;101827.28;10372061;28;20038;-64
2023/06/21 20:21:09;;;;;;;4.60;3.38;;;;;;;20.39;60.25;101835.56;10371207;28;20057;-62
2023/06/21 20:26:09;;;;;;;3.65;3.35;;;;;;;20.16;61.53;101830.88;10371463;28;20095;-62
2023/06/21 20:31:10;;;;;;;6.80;3.65;;;;;;;19.98;62.44;101831.00;10373244;28;20461;-64
2023/06/21 20:36:10;;;;;;;5.32;3.90;;;;;;;19.80;63.57;101833.84;10372137;28;20049;-63
2023/06/21 20:41:11;;;;;;;6.60;5.18;;;;;;;19.70;64.14;101848.16;10353389;28;20038;-62
2023/06/21 20:46:11;;;;;;;6.28;4.65;;;;;;;19.62;64.67;101859.44;10370967;28;20153;-67
2023/06/21 20:51:12;;;;;;;5.25;3.83;;;;;;;19.52;65.04;101860.84;10371113;28;20200;-68
2023/06/21 20:56:12;;;;;;;7.72;4.38;;;;;;;19.42;65.54;101862.50;10379095;28;20033;-67
2023/06/21 21:01:15;;;;;;;11.65;4.80;;;;;;;19.33;66.06;101877.63;10379731;28;20033;-68
2023/06/21 21:06:16;;;;;;;4.72;3.90;;;;;;;19.24;66.96;101885.31;10376802;28;20535;-69
2023/06/21 21:11:16;;;;;;;5.18;4.68;;;;;;;19.16;67.60;101883.75;10361880;28;20064;-68
2023/06/21 21:16:17;;;;;;;4.75;4.30;;;;;;;19.08;68.66;101878.59;10378428;28;20410;-69
2023/06/21 21:21:17;;;;;;;4.47;4.07;;;;;;;19.03;69.04;101883.91;10378092;28;20088;-69
2023/06/21 21:26:17;;;;;;;4.45;4.10;;;;;;;18.94;69.50;101874.31;10378540;28;20042;-68
2023/06/21 21:31:18;;;;;;;5.72;4.35;;;;;;;18.90;70.94;101879.44;10377180;28;20030;-69
2023/06/21 21:36:18;;;;;;;5.68;3.63;;;;;;;18.80;74.62;101888.19;10377219;28;20066;-69
2023/06/21 21:41:19;;;;;;;9.88;5.68;;;;;;;18.67;74.19;101887.47;10377355;28;20389;-69
2023/06/21 21:46:19;;;;;;;5.40;4.88;;;;;;;18.52;74.04;101893.31;10378548;28;20155;-69
2023/06/21 21:51:19;;;;;;;6.80;5.32;;;;;;;18.38;74.98;101889.88;10377439;28;20490;-69
2023/06/21 21:56:20;;;;;;;6.25;5.20;;;;;;;18.20;77.33;101887.09;10376473;28;20046;-69
2023/06/21 22:01:20;;;;;;;8.90;5.78;;;;;;;18.14;78.14;101894.28;10375696;28;20466;-68
2023/06/21 22:06:21;;;;;;;5.63;5.15;;;;;;;18.14;78.44;101888.81;10376580;28;20112;-69
2023/06/21 22:11:21;;;;;;;8.27;5.57;;;;;;;18.09;78.83;101899.59;10375892;28;20116;-71
2023/06/21 22:16:22;;;;;;;6.70;6.03;;;;;;;18.01;78.99;101902.63;10376049;28;20045;-69
2023/06/21 22:21:22;;;;;;;7.22;6.65;;;;;;;17.85;80.37;101899.38;10375818;28;20034;-69
2023/06/21 22:26:22;;;;;;;9.38;7.45;;;;;;;17.65;83.36;101893.16;10375563;28;20058;-70
2023/06/21 22:31:23;;;;;;;9.82;7.57;;;;;;;17.47;84.59;101907.56;10374548;28;20486;-69
2023/06/21 22:36:23;;;;;;;11.27;10.23;;;;;;;17.30;89.50;101909.97;10374962;28;20173;-69
2023/06/21 22:41:24;;;;;;;11.32;8.93;;;;;;;17.18;88.34;101907.06;10377579;28;20556;-69
2023/06/21 22:46:28;;;;;;;12.75;10.85;;;;;;;17.14;88.64;101910.47;10391151;28;20096;-69
2023/06/21 22:51:29;;;;;;;11.77;10.60;;;;;;;16.95;91.60;101909.47;10374727;28;20034;-69